If you wish to contribute or participate in the discussions about articles you are invited to join SKYbrary as a registered user

 Actions

Mostar International Airport

From SKYbrary Wiki

LQMO
Airport
ICAO: LQMO – IATA: OMO
Summary
Name Mostar International Airport
Region Europe
Territory Bosnia and Herzegovina BA.gif
Location Ortijes, Bosnia and Hertzegovina
Serving Mostar
Elevation 47.549 m <br />156 ft47.549 m <br />
Coordinates 43° 16' 54.80" N, 17° 50' 38.04" E
Runways
Designator Length Width Surface ROPS
16/34 2400 m7,874.016 ft <br /> 48 m157.48 ft <br /> ASP /


METAR
Observation LQMO 262200Z VRB02KT CAVOK 05/04 Q1020
Station Mostar
Date/Time 26 October 2021 22:00:00
Wind direction °
Wind speed 02 kts
Lowest cloud amount clouds and visibility OK
Temperature 5°C
Dew point 4°C
Humidity 93%
QNH 1020 hPa
Weather condition n/a

Mostar International Airport is an airport near Mostar, Bosnia and Herzegovina, situated in the village of Ortiješ, 4 NM southeast of Mostar.

Climatology

Humid subtropical climate (Köppen climate classification Cfa)

Maps

Terrain

Loading map...

Airport Layout

Loading map...


Accidents & Serious Incidents at or in vicinity of LQMO

None on SKYbrary